This is the latest recevied weather packets stored in our database for station/object W4CKA. If no packets are shown the sender has not sent any weather packets the latest 10 day(s).
| Time | Temp. | Humidity | Pressure | Rain* | Wind** | Luminosity | Snow |
|---|---|---|---|---|---|---|---|
| 1787576675 | 18.89° C | 91% | 1060.4 hPa | 0 mm | - | 150 W/m² | - |
| 1787576072 | 17.78° C | 99% | 1060.4 hPa | 0 mm | - | 136 W/m² | - |
| 1787575469 | 16.11° C | 99% | 1060.3 hPa | 0 mm | - | 110 W/m² | - |
| 1787574864 | 15.56° C | 99% | 1060.3 hPa | 0 mm | - | 102 W/m² | - |
| 1787574265 | 14.44° C | 99% | 1060.3 hPa | 0 mm | - | 42 W/m² | - |
| 1787573665 | 13.89° C | 99% | 1060.1 hPa | 0 mm | - | 39 W/m² | - |
| 1787573062 | 13.89° C | 99% | 1060 hPa | 0 mm | - | 34 W/m² | - |
| 1787572460 | 13.33° C | 99% | 1060.1 hPa | 0.51 mm | - | 29 W/m² | - |
| 1787571860 | 13.33° C | 99% | 1060.2 hPa | 0 mm | - | 28 W/m² | - |
| 1787571259 | 13.33° C | 99% | 1059.7 hPa | 0 mm | - | 20 W/m² | - |
| 1787570657 | 13.33° C | 99% | 1059.7 hPa | 0 mm | - | 13 W/m² | - |
| 1787570055 | 12.78° C | 99% | 1059.7 hPa | 0 mm | - | 7 W/m² | - |
| 1787569452 | 13.33° C | 99% | 1059.4 hPa | 0 mm | - | 1 W/m² | - |
| 1787568846 | 13.33° C | 99% | 1059.7 hPa | 0 mm | - | 0 W/m² | - |
| 1787568244 | 13.33° C | 99% | 1059.6 hPa | 0 mm | - | 0 W/m² | - |
| 1787567640 | 13.33° C | 99% | 1059.7 hPa | 0 mm | - | 0 W/m² | - |
| 1787567039 | 13.89° C | 99% | 1059.7 hPa | 0 mm | - | 0 W/m² | - |
| 1787566440 | 13.89° C | 99% | 1059.9 hPa | 0 mm | - | 0 W/m² | - |
| 1787565837 | 13.89° C | 99% | 1059.7 hPa | 0 mm | - | 0 W/m² | - |
| 1787565233 | 13.89° C | 99% | 1059.5 hPa | 0 mm | - | 0 W/m² | - |
| 1787564630 | 13.33° C | 99% | 1059.7 hPa | 0 mm | - | 0 W/m² | - |
| 1787564026 | 13.89° C | 99% | 1059.5 hPa | 0 mm | - | 0 W/m² | - |
| 1787563422 | 14.44° C | 99% | 1059.4 hPa | 0 mm | - | 0 W/m² | - |
| 1787562818 | 13.89° C | 99% | 1059.4 hPa | 0 mm | - | 0 W/m² | - |
| 1787562217 | 14.44° C | 99% | 1059.4 hPa | 0 mm | - | 0 W/m² | - |
* Rain latest hour (hover to see other rain measurements)
** Current wind speed in m/s (hover to see current wind gust speed)